createdAt,value
2019-04-26T00:00:10.398Z,19.48
2019-04-26T00:02:41.251Z,22.45
2019-04-26T00:05:10.476Z,20.68
2019-04-26T00:07:43.724Z,24.43
2019-04-26T00:10:14.591Z,25.95
2019-04-26T00:12:44.858Z,24.97
2019-04-26T00:15:16.328Z,23.25
2019-04-26T00:17:46.804Z,25.13
2019-04-26T00:20:15.499Z,24.10
2019-04-26T00:22:44.257Z,26.23
2019-04-26T00:25:13.065Z,25.08
2019-04-26T00:27:41.693Z,26.93
2019-04-26T00:30:11.772Z,23.57
2019-04-26T00:32:40.782Z,26.68
2019-04-26T00:35:09.509Z,27.52
2019-04-26T00:37:38.269Z,23.70
2019-04-26T00:40:07.135Z,25.37
2019-04-26T00:42:36.430Z,22.95
2019-04-26T00:45:05.590Z,25.88
2019-04-26T00:47:35.512Z,24.72
2019-04-26T00:50:05.762Z,24.77
2019-04-26T00:52:34.779Z,21.90
2019-04-26T00:55:03.574Z,24.07
2019-04-26T00:57:33.306Z,24.03
2019-04-26T01:00:03.200Z,22.40
2019-04-26T01:02:36.108Z,25.52
2019-04-26T01:05:05.472Z,29.23
2019-04-26T01:07:34.166Z,30.27
2019-04-26T01:10:02.837Z,24.40
2019-04-26T01:12:31.549Z,23.47
2019-04-26T01:15:01.764Z,19.82
2019-04-26T01:17:30.392Z,24.87
2019-04-26T01:19:59.713Z,22.37
2019-04-26T01:22:31.381Z,20.92
2019-04-26T01:25:05.421Z,28.05
2019-04-26T01:27:37.396Z,24.95
2019-04-26T01:30:11.660Z,27.90
2019-04-26T01:32:42.818Z,27.58
2019-04-26T01:35:11.974Z,30.80
2019-04-26T01:37:43.336Z,26.73
2019-04-26T01:40:13.692Z,27.48
2019-04-26T01:42:49.530Z,31.07
2019-04-26T01:45:32.124Z,28.97
2019-04-26T01:50:32.131Z,29.05
2019-04-26T01:53:01.781Z,32.38
2019-04-26T01:55:32.504Z,32.48
2019-04-26T01:58:04.202Z,31.90
2019-04-26T02:00:37.851Z,37.00
2019-04-26T02:03:08.140Z,36.42
2019-04-26T02:05:36.882Z,38.20
2019-04-26T02:08:05.591Z,33.38
2019-04-26T02:10:35.993Z,33.40
2019-04-26T02:13:04.750Z,33.02
2019-04-26T02:15:33.871Z,31.37
2019-04-26T02:18:03.372Z,38.13
2019-04-26T02:20:49.694Z,32.00
2019-04-26T02:23:23.609Z,38.08
2019-04-26T02:25:53.266Z,39.42
2019-04-26T02:28:21.822Z,34.88
2019-04-26T02:30:50.644Z,34.92
2019-04-26T02:33:19.901Z,35.28
2019-04-26T02:35:49.447Z,37.45
2019-04-26T02:38:18.675Z,32.10
2019-04-26T02:40:48.707Z,39.30
2019-04-26T02:43:20.419Z,36.53
2019-04-26T02:46:08.391Z,33.42
2019-04-26T02:48:56.764Z,38.83
2019-04-26T02:51:29.251Z,37.75
2019-04-26T02:54:01.821Z,34.95
2019-04-26T02:56:34.166Z,31.27
2019-04-26T02:59:12.420Z,34.78
2019-04-26T03:01:41.833Z,34.53
2019-04-26T03:04:10.642Z,33.98
2019-04-26T03:06:42.835Z,34.93
2019-04-26T03:09:14.419Z,41.23
2019-04-26T03:11:46.081Z,30.97
2019-04-26T03:14:19.913Z,32.03
2019-04-26T03:17:01.950Z,27.22
2019-04-26T03:19:44.031Z,29.05
2019-04-26T03:22:18.604Z,31.27
2019-04-26T03:25:22.171Z,30.40
2019-04-26T03:28:05.913Z,32.13
2019-04-26T03:31:07.717Z,30.45
2019-04-26T03:33:49.142Z,35.30
2019-04-26T03:36:23.464Z,34.05
2019-04-26T03:39:14.898Z,30.55
2019-04-26T03:42:12.400Z,31.93
2019-04-26T03:44:58.522Z,30.75
2019-04-26T03:47:35.622Z,42.58
2019-04-26T03:50:09.850Z,43.65
2019-04-26T03:52:47.478Z,46.95
2019-04-26T03:55:43.773Z,46.43
2019-04-26T03:58:25.654Z,50.25
2019-04-26T04:01:06.318Z,50.35
2019-04-26T04:03:43.950Z,51.13
2019-04-26T04:06:17.002Z,52.78
2019-04-26T04:08:51.888Z,58.63
2019-04-26T04:11:30.463Z,56.15
2019-04-26T04:14:13.940Z,61.33
2019-04-26T04:16:56.134Z,58.48
2019-04-26T04:20:24.244Z,49.35
2019-04-26T04:23:00.869Z,60.08
2019-04-26T04:25:32.481Z,57.23
2019-04-26T04:28:06.550Z,63.42
2019-04-26T04:30:45.889Z,65.42
2019-04-26T04:33:36.731Z,56.55
2019-04-26T04:36:08.458Z,54.42
2019-04-26T04:39:10.792Z,59.37
2019-04-26T04:41:50.812Z,54.83
2019-04-26T04:44:25.171Z,58.30
2019-04-26T04:50:08.946Z,55.12
2019-04-26T04:52:47.787Z,58.20
2019-04-26T04:55:28.378Z,62.10
2019-04-26T04:58:02.892Z,58.42
2019-04-26T05:00:54.127Z,53.40
2019-04-26T05:03:42.346Z,57.08
2019-04-26T05:06:34.450Z,56.02
2019-04-26T05:09:11.504Z,56.70
2019-04-26T05:11:47.632Z,55.63
2019-04-26T05:14:22.235Z,55.35
2019-04-26T05:17:13.359Z,52.85
2019-04-26T05:20:00.038Z,54.65
2019-04-26T05:22:47.300Z,52.67
2019-04-26T05:25:51.652Z,52.88
2019-04-26T05:28:27.635Z,54.55
2019-04-26T05:31:34.338Z,49.47
2019-04-26T05:34:37.406Z,56.35
2019-04-26T05:39:57.370Z,53.52
2019-04-26T05:45:45.332Z,57.47
2019-04-26T05:48:55.721Z,52.58
2019-04-26T05:52:00.294Z,57.83
2019-04-26T05:55:09.834Z,52.35
2019-04-26T05:57:46.049Z,47.48
2019-04-26T06:00:43.431Z,54.63
2019-04-26T06:03:41.568Z,56.65
2019-04-26T06:06:34.138Z,50.03
2019-04-26T06:09:32.597Z,55.25
2019-04-26T06:12:23.232Z,52.67
2019-04-26T06:15:11.403Z,47.17
2019-04-26T06:17:57.280Z,48.48
2019-04-26T06:20:44.052Z,46.86
2019-04-26T06:23:15.753Z,45.03
2019-04-26T06:26:01.401Z,45.37
2019-04-26T06:29:01.106Z,49.40
2019-04-26T06:31:35.573Z,45.70
2019-04-26T06:34:12.956Z,49.45
2019-04-26T06:37:02.190Z,45.60
2019-04-26T06:39:39.592Z,48.80
2019-04-26T06:42:17.139Z,45.12
2019-04-26T06:45:02.890Z,44.05
2019-04-26T06:47:48.202Z,42.10
2019-04-26T06:50:21.466Z,40.05
2019-04-26T06:53:03.550Z,44.93
2019-04-26T06:55:39.542Z,42.30
2019-04-26T06:58:36.806Z,39.27
2019-04-26T07:01:10.630Z,36.40
2019-04-26T07:03:59.645Z,37.98
2019-04-26T07:06:35.324Z,35.90
2019-04-26T07:09:11.504Z,34.75
2019-04-26T07:12:02.879Z,37.70
2019-04-26T07:14:55.898Z,39.83
2019-04-26T07:17:42.551Z,32.85
2019-04-26T07:20:21.236Z,31.07
2019-04-26T07:23:39.667Z,33.58
2019-04-26T07:26:26.449Z,34.10
2019-04-26T07:29:07.150Z,33.20
2019-04-26T07:32:11.588Z,33.80
2019-04-26T07:35:14.661Z,34.53
2019-04-26T07:37:48.882Z,31.03
2019-04-26T07:40:42.669Z,27.10
2019-04-26T07:43:41.730Z,31.62
2019-04-26T07:46:46.468Z,29.60
2019-04-26T07:49:39.146Z,25.17
2019-04-26T07:55:19.438Z,25.75
2019-04-26T07:57:56.557Z,25.77
2019-04-26T08:00:44.961Z,28.80
2019-04-26T08:03:39.799Z,22.98
2019-04-26T08:06:14.181Z,26.50
2019-04-26T08:08:51.091Z,23.15
2019-04-26T08:11:22.641Z,25.55
2019-04-26T08:14:12.608Z,21.83
2019-04-26T08:16:54.681Z,25.37
2019-04-26T08:19:26.397Z,21.85
2019-04-26T08:22:11.611Z,24.63
2019-04-26T08:24:30.717Z,24.85
2019-04-26T08:27:08.780Z,24.15
2019-04-26T08:29:35.796Z,21.33
2019-04-26T08:32:08.880Z,24.40
2019-04-26T08:34:41.722Z,24.90
2019-04-26T08:37:13.454Z,21.77
2019-04-26T08:39:45.512Z,22.43
2019-04-26T08:42:34.138Z,26.57
2019-04-26T08:45:10.360Z,25.45
2019-04-26T08:47:39.580Z,21.07
2019-04-26T08:50:27.854Z,24.32
2019-04-26T08:52:59.210Z,20.35
2019-04-26T08:55:29.580Z,24.83
2019-04-26T08:58:01.328Z,24.47
2019-04-26T09:00:35.036Z,27.50
2019-04-26T09:03:11.573Z,22.87
2019-04-26T09:05:45.630Z,22.45
2019-04-26T09:08:16.875Z,24.98
2019-04-26T09:10:48.715Z,23.50
2019-04-26T09:16:07.426Z,24.45
2019-04-26T09:18:43.104Z,22.73
2019-04-26T09:21:08.738Z,25.02
2019-04-26T09:26:29.796Z,20.18
2019-04-26T09:29:00.242Z,26.73
2019-04-26T09:31:33.458Z,24.15
2019-04-26T09:34:06.433Z,19.43
2019-04-26T09:36:34.066Z,25.75
2019-04-26T09:39:04.027Z,18.48
2019-04-26T09:41:34.597Z,22.15
2019-04-26T09:44:04.920Z,24.50
2019-04-26T09:46:38.004Z,22.95
2019-04-26T09:49:08.599Z,19.95
2019-04-26T09:51:39.016Z,22.32
2019-04-26T09:54:07.743Z,18.03
2019-04-26T09:56:36.278Z,20.33
2019-04-26T09:59:05.634Z,22.55
2019-04-26T10:01:34.649Z,22.37
2019-04-26T10:04:03.255Z,22.48
2019-04-26T10:06:32.129Z,21.97
2019-04-26T10:09:01.390Z,25.82
2019-04-26T10:11:33.000Z,22.55
2019-04-26T10:14:09.170Z,22.57
2019-04-26T10:19:31.746Z,22.42
2019-04-26T10:22:00.678Z,24.15
2019-04-26T10:24:29.386Z,22.93
2019-04-26T10:26:59.291Z,22.17
2019-04-26T10:29:28.111Z,26.60
2019-04-26T10:31:56.834Z,19.45
2019-04-26T10:34:26.495Z,22.82
2019-04-26T10:36:56.988Z,21.52
2019-04-26T10:39:28.528Z,22.77
2019-04-26T10:41:55.833Z,21.42
2019-04-26T10:44:24.693Z,21.12
2019-04-26T10:46:55.699Z,24.90
2019-04-26T10:49:46.651Z,21.12
2019-04-26T10:52:24.293Z,20.35
2019-04-26T10:54:57.637Z,21.62
2019-04-26T10:57:30.586Z,21.90
2019-04-26T11:00:00.879Z,25.93
2019-04-26T11:02:29.681Z,19.15
2019-04-26T11:04:59.090Z,20.54
2019-04-26T11:07:27.735Z,20.32
2019-04-26T11:09:56.301Z,22.00
2019-04-26T11:12:25.022Z,20.77
2019-04-26T11:14:56.975Z,19.10
2019-04-26T11:17:24.086Z,22.42
2019-04-26T11:19:52.829Z,17.87
2019-04-26T11:22:29.071Z,19.70
2019-04-26T11:24:53.912Z,20.73
2019-04-26T11:27:23.523Z,20.82
2019-04-26T11:29:53.965Z,23.12
2019-04-26T11:32:23.477Z,23.40
2019-04-26T11:34:54.548Z,20.67
2019-04-26T11:37:22.547Z,23.02
2019-04-26T11:39:51.264Z,16.77
2019-04-26T11:42:20.009Z,19.60
2019-04-26T11:44:48.741Z,19.57
2019-04-26T11:47:17.371Z,18.55
2019-04-26T11:49:46.007Z,21.00
2019-04-26T11:52:14.658Z,20.15
2019-04-26T11:54:44.372Z,18.10
2019-04-26T11:57:13.630Z,14.53
2019-04-26T11:59:42.325Z,18.43
2019-04-26T12:02:16.048Z,19.65
2019-04-26T12:04:59.657Z,19.42
2019-04-26T12:07:32.786Z,20.88
2019-04-26T12:10:05.895Z,19.65
2019-04-26T12:12:33.208Z,18.90
2019-04-26T12:15:03.826Z,18.77
2019-04-26T12:17:35.170Z,19.70
2019-04-26T12:20:04.955Z,19.42
2019-04-26T12:22:33.580Z,19.90
2019-04-26T12:25:03.312Z,17.70
2019-04-26T12:27:32.756Z,17.57
2019-04-26T12:30:01.471Z,20.88
2019-04-26T12:32:30.097Z,20.50
2019-04-26T12:34:58.739Z,15.93
2019-04-26T12:37:27.436Z,17.97
2019-04-26T12:39:56.094Z,19.90
2019-04-26T12:42:24.709Z,18.17
2019-04-26T12:45:03.918Z,21.77
2019-04-26T12:47:50.144Z,19.02
2019-04-26T12:50:18.759Z,18.40
2019-04-26T12:52:47.582Z,20.05
2019-04-26T12:55:18.256Z,19.25
2019-04-26T12:57:46.659Z,25.00
2019-04-26T13:00:17.208Z,18.82
2019-04-26T13:02:45.794Z,14.47
2019-04-26T13:05:18.564Z,21.12
2019-04-26T13:07:46.744Z,20.57
2019-04-26T13:10:35.470Z,19.92
2019-04-26T13:13:17.460Z,18.52
2019-04-26T13:15:51.820Z,18.93
2019-04-26T13:18:20.538Z,20.15
2019-04-26T13:20:49.341Z,20.45
2019-04-26T13:23:18.006Z,19.07
2019-04-26T13:25:46.589Z,19.65
2019-04-26T13:28:20.368Z,16.35
2019-04-26T13:30:46.369Z,18.73
2019-04-26T13:33:15.061Z,17.00
2019-04-26T13:35:46.647Z,20.25
2019-04-26T13:38:14.051Z,18.52
2019-04-26T13:40:42.703Z,15.95
2019-04-26T13:43:12.023Z,19.00
2019-04-26T13:45:50.861Z,17.10
2019-04-26T13:48:30.046Z,19.87
2019-04-26T13:51:18.443Z,17.40
2019-04-26T13:53:47.225Z,17.90
2019-04-26T13:56:15.952Z,22.25
2019-04-26T13:58:45.242Z,17.48
2019-04-26T14:01:14.530Z,25.90
2019-04-26T14:03:44.096Z,24.00
2019-04-26T14:06:12.726Z,21.02
2019-04-26T14:08:41.428Z,20.08
2019-04-26T14:11:10.080Z,20.37
2019-04-26T14:13:38.747Z,17.80
2019-04-26T14:16:07.677Z,20.90
2019-04-26T14:18:39.144Z,19.42
2019-04-26T14:21:07.271Z,18.62
2019-04-26T14:23:37.579Z,19.85
2019-04-26T14:26:14.043Z,22.13
2019-04-26T14:28:42.763Z,16.60
2019-04-26T14:33:49.367Z,18.02
2019-04-26T14:36:18.627Z,16.52
2019-04-26T14:38:47.383Z,17.52
2019-04-26T14:41:21.992Z,14.07
2019-04-26T14:43:46.298Z,21.80
2019-04-26T14:46:16.311Z,15.30
2019-04-26T14:48:54.949Z,15.88
2019-04-26T14:51:16.846Z,14.60
2019-04-26T14:53:45.596Z,14.45
2019-04-26T14:56:14.322Z,16.20
2019-04-26T14:58:44.426Z,13.28
2019-04-26T15:01:32.250Z,13.90
2019-04-26T15:04:19.378Z,15.30
2019-04-26T15:06:51.947Z,15.53
2019-04-26T15:11:56.879Z,15.70
2019-04-26T15:14:21.111Z,21.00
2019-04-26T15:16:50.257Z,16.27
2019-04-26T15:19:19.067Z,14.33
2019-04-26T15:21:47.764Z,16.82
2019-04-26T15:24:16.475Z,18.10
2019-04-26T15:26:45.169Z,16.32
2019-04-26T15:29:14.129Z,16.97
2019-04-26T15:31:42.747Z,17.87
2019-04-26T15:34:12.182Z,18.37
2019-04-26T15:36:43.455Z,17.85
2019-04-26T15:39:21.285Z,15.93
2019-04-26T15:41:59.285Z,18.45
2019-04-26T15:44:47.948Z,22.42
2019-04-26T15:47:32.005Z,16.70
2019-04-26T15:50:03.891Z,15.53
2019-04-26T15:55:05.747Z,18.65
2019-04-26T15:57:34.690Z,19.10
2019-04-26T16:00:04.408Z,21.42
2019-04-26T16:02:33.108Z,17.32
2019-04-26T16:05:02.611Z,19.23
2019-04-26T16:07:33.003Z,17.70
2019-04-26T16:10:01.779Z,22.35
2019-04-26T16:12:32.001Z,20.15
2019-04-26T16:15:02.311Z,19.43
2019-04-26T16:17:30.985Z,18.85
2019-04-26T16:20:01.753Z,17.10
2019-04-26T16:22:32.805Z,21.00
2019-04-26T16:25:04.028Z,16.25
2019-04-26T16:27:34.119Z,21.00
2019-04-26T16:30:19.515Z,19.80
2019-04-26T16:32:58.265Z,20.88
2019-04-26T16:35:28.001Z,20.75
2019-04-26T16:37:53.453Z,16.87
2019-04-26T16:40:25.781Z,17.00
2019-04-26T16:42:56.604Z,20.80
2019-04-26T16:45:22.946Z,19.67
2019-04-26T16:47:53.142Z,21.90
2019-04-26T16:50:28.827Z,19.92
2019-04-26T16:52:52.291Z,22.07
2019-04-26T16:57:54.902Z,19.67
2019-04-26T17:00:31.841Z,16.02
2019-04-26T17:02:52.794Z,15.00
2019-04-26T17:05:43.939Z,15.83
2019-04-26T17:07:53.868Z,16.57
2019-04-26T17:10:24.693Z,16.30
2019-04-26T17:12:55.721Z,21.80
2019-04-26T17:15:24.897Z,17.20
2019-04-26T17:17:53.509Z,22.02
2019-04-26T17:20:22.259Z,22.33
2019-04-26T17:23:03.126Z,18.07
2019-04-26T17:25:35.932Z,25.80
2019-04-26T17:28:05.484Z,16.65
2019-04-26T17:30:40.809Z,17.87
2019-04-26T17:33:04.578Z,17.10
2019-04-26T17:35:36.747Z,16.90
2019-04-26T17:38:05.074Z,20.52
2019-04-26T17:40:36.290Z,17.45
2019-04-26T17:43:05.455Z,20.27
2019-04-26T17:45:36.309Z,20.12
2019-04-26T17:48:11.735Z,18.82
2019-04-26T17:50:42.362Z,19.40
2019-04-26T17:53:16.150Z,22.60
2019-04-26T17:55:45.912Z,23.05
2019-04-26T17:58:17.266Z,17.00
2019-04-26T18:00:46.577Z,18.70
2019-04-26T18:03:15.036Z,19.15
2019-04-26T18:05:56.518Z,17.65
2019-04-26T18:08:33.659Z,20.77
2019-04-26T18:10:51.558Z,16.75
2019-04-26T18:13:20.244Z,18.45
2019-04-26T18:15:50.638Z,24.92
2019-04-26T18:18:20.835Z,21.43
2019-04-26T18:20:56.866Z,18.42
2019-04-26T18:23:25.742Z,20.68
2019-04-26T18:25:56.095Z,21.35
2019-04-26T18:28:24.792Z,20.77
2019-04-26T18:30:53.542Z,22.13
2019-04-26T18:33:25.850Z,20.90
2019-04-26T18:35:55.977Z,19.15
2019-04-26T18:38:22.866Z,17.67
2019-04-26T18:41:00.473Z,19.42
2019-04-26T18:43:24.284Z,23.20
2019-04-26T18:45:58.597Z,23.43
2019-04-26T18:48:25.104Z,18.48
2019-04-26T18:50:55.342Z,21.65
2019-04-26T18:53:39.441Z,16.54
2019-04-26T18:56:07.201Z,22.22
2019-04-26T18:58:37.996Z,19.80
2019-04-26T19:01:07.009Z,20.57
2019-04-26T19:03:36.409Z,20.64
2019-04-26T19:06:05.763Z,19.62
2019-04-26T19:08:45.487Z,17.67
2019-04-26T19:11:07.560Z,18.12
2019-04-26T19:13:37.786Z,21.93
2019-04-26T19:16:10.595Z,23.27
2019-04-26T19:21:27.833Z,21.75
2019-04-26T19:24:05.799Z,18.74
2019-04-26T19:26:33.133Z,19.40
2019-04-26T19:28:58.414Z,19.85
2019-04-26T19:31:27.535Z,22.82
2019-04-26T19:33:56.219Z,18.42
2019-04-26T19:36:27.845Z,23.02
2019-04-26T19:38:55.008Z,18.25
2019-04-26T19:41:25.175Z,16.75
2019-04-26T19:43:56.845Z,17.02
2019-04-26T19:46:31.556Z,22.00
2019-04-26T19:49:14.503Z,18.75
2019-04-26T19:51:52.190Z,21.02
2019-04-26T19:54:27.729Z,18.15
2019-04-26T19:56:56.665Z,23.02
2019-04-26T19:59:27.584Z,20.92
2019-04-26T20:01:57.976Z,29.87
2019-04-26T20:04:30.687Z,19.17
2019-04-26T20:06:56.877Z,19.32
2019-04-26T20:09:26.508Z,21.60
2019-04-26T20:11:57.939Z,22.23
2019-04-26T20:14:39.516Z,23.77
2019-04-26T20:16:56.061Z,20.60
2019-04-26T20:19:34.409Z,20.82
2019-04-26T20:21:55.059Z,15.75
2019-04-26T20:24:23.638Z,20.62
2019-04-26T20:26:52.369Z,23.85
2019-04-26T20:29:21.484Z,24.45
2019-04-26T20:32:02.158Z,19.60
2019-04-26T20:34:32.101Z,22.58
2019-04-26T20:37:01.465Z,24.95
2019-04-26T20:39:31.682Z,23.73
2019-04-26T20:42:03.770Z,21.77
2019-04-26T20:44:47.553Z,21.00
2019-04-26T20:47:03.226Z,22.70
2019-04-26T20:49:33.686Z,21.87
2019-04-26T20:52:02.302Z,21.80
2019-04-26T20:54:34.880Z,21.73
2019-04-26T20:57:03.510Z,24.47
2019-04-26T20:59:32.145Z,20.45
2019-04-26T21:02:07.438Z,23.30
2019-04-26T21:04:37.978Z,27.05
2019-04-26T21:07:06.826Z,20.50
2019-04-26T21:09:36.432Z,24.23
2019-04-26T21:14:37.346Z,22.05
2019-04-26T21:17:05.514Z,18.13
2019-04-26T21:19:34.179Z,23.95
2019-04-26T21:22:02.998Z,20.02
2019-04-26T21:24:36.823Z,25.25
2019-04-26T21:27:25.882Z,24.43
2019-04-26T21:30:03.154Z,26.93
2019-04-26T21:32:41.687Z,26.93
2019-04-26T21:35:13.547Z,24.57
2019-04-26T21:37:53.945Z,25.62
2019-04-26T21:40:30.805Z,21.10
2019-04-26T21:43:00.617Z,21.68
2019-04-26T21:45:31.050Z,20.85
2019-04-26T21:48:02.646Z,23.38
2019-04-26T21:50:35.725Z,20.80
2019-04-26T21:53:03.445Z,23.95
2019-04-26T21:55:35.295Z,25.48
2019-04-26T21:58:03.007Z,22.07
2019-04-26T22:00:33.417Z,27.30
2019-04-26T22:03:03.857Z,33.23
2019-04-26T22:05:35.338Z,25.15
2019-04-26T22:08:04.140Z,22.90
2019-04-26T22:10:34.500Z,25.80
2019-04-26T22:13:05.652Z,27.07
2019-04-26T22:15:54.563Z,23.20
2019-04-26T22:18:32.871Z,23.65
2019-04-26T22:21:03.122Z,23.87
2019-04-26T22:23:43.637Z,27.93
2019-04-26T22:26:13.654Z,30.08
2019-04-26T22:28:43.369Z,25.77
2019-04-26T22:31:13.369Z,28.00
2019-04-26T22:33:42.875Z,27.13
2019-04-26T22:36:13.169Z,26.87
2019-04-26T22:38:42.856Z,24.95
2019-04-26T22:41:19.045Z,29.90
2019-04-26T22:43:49.585Z,28.35
2019-04-26T22:46:44.345Z,27.80
2019-04-26T22:49:05.574Z,26.27
2019-04-26T22:51:33.587Z,30.35
2019-04-26T22:54:07.233Z,31.40
2019-04-26T22:56:37.016Z,29.42
2019-04-26T22:59:08.004Z,26.68
2019-04-26T23:01:39.228Z,25.37
2019-04-26T23:04:07.396Z,27.77
2019-04-26T23:06:36.322Z,25.40
2019-04-26T23:09:07.448Z,32.73
2019-04-26T23:11:39.527Z,30.12
2019-04-26T23:14:17.834Z,26.87
2019-04-26T23:17:04.198Z,29.23
2019-04-26T23:19:28.261Z,28.85
2019-04-26T23:21:59.626Z,30.62
2019-04-26T23:24:28.282Z,32.17
2019-04-26T23:26:56.907Z,34.03
2019-04-26T23:29:25.633Z,33.20
2019-04-26T23:31:55.563Z,30.97
2019-04-26T23:34:25.287Z,34.50
2019-04-26T23:36:54.115Z,31.48
2019-04-26T23:39:24.647Z,31.87
2019-04-26T23:41:53.978Z,29.12
2019-04-26T23:44:23.276Z,31.60
2019-04-26T23:46:54.946Z,30.92
2019-04-26T23:49:25.287Z,32.10
2019-04-26T23:51:56.712Z,28.73
2019-04-26T23:54:28.080Z,33.40
2019-04-26T23:56:57.946Z,29.20
2019-04-26T23:59:25.851Z,31.82
